Time;durP1;ratioP1;P1;durP2;ratioP2;P2;SDS_P1;SDS_P2;PMS_P1;PMS_P2;Temp;Humidity;BMP_temperature;BMP_pressure;BME280_temperature;BME280_humidity;BME280_pressure;Samples;Min_cycle;Max_cycle;Signal;HPM_P1;HPM_P2
2023/07/31 00:00:52;;;;;;;;;;;;;;;;;;5076940;28;19979;-72
2023/07/31 00:03:19;;;;;;;;;;;;;;;;;;5091732;28;19924;-71
2023/07/31 00:05:46;;;;;;;;;;;;;;;;;;5091843;28;19959;-72
2023/07/31 00:08:13;;;;;;;;;;;;;;;;;;5092987;28;20013;-72
2023/07/31 00:10:40;;;;;;;;;;;;;;;;;;5090513;28;20815;-72
2023/07/31 00:13:07;;;;;;;;;;;;;;;;;;5086039;28;20474;-72
2023/07/31 00:15:34;;;;;;;;;;;;;;;;;;5088087;28;20365;-72
2023/07/31 00:18:03;;;;;;;;;;;;;;;;;;5071896;28;22445;-72
2023/07/31 00:20:30;;;;;;;;;;;;;;;;;;5073744;28;20035;-72
2023/07/31 00:22:57;;;;;;;;;;;;;;;;;;5086228;28;20002;-72
2023/07/31 00:25:24;;;;;;;;;;;;;;;;;;5084564;28;19924;-73
2023/07/31 00:27:51;;;;;;;;;;;;;;;;;;5088461;28;20298;-73
2023/07/31 00:30:18;;;;;;;;;;;;;;;;;;5081511;28;20669;-73
2023/07/31 00:32:45;;;;;;;;;;;;;;;;;;5076542;28;20357;-73
2023/07/31 00:35:12;;;;;;;;;;;;;;;;;;5075722;28;20026;-73
2023/07/31 00:37:39;;;;;;;;;;;;;;;;;;5089744;28;20007;-73
2023/07/31 00:40:06;;;;;;;;;;;;;;;;;;5090369;28;20007;-73
2023/07/31 00:42:33;;;;;;;;;;;;;;;;;;5089469;28;19928;-73
2023/07/31 00:45:00;;;;;;;;;;;;;;;;;;5086055;28;19963;-73
2023/07/31 00:47:27;;;;;;;;;;;;;;;;;;5076099;28;19930;-73
2023/07/31 00:49:54;;;;;;;;;;;;;;;;;;5080950;28;20017;-72
2023/07/31 00:52:21;;;;;;;;;;;;;;;;;;5079233;28;20478;-72
2023/07/31 00:54:48;;;;;;;;;;;;;;;;;;5078472;28;19977;-72
2023/07/31 00:57:15;;;;;;;;;;;;;;;;;;5086952;28;19988;-73
2023/07/31 00:59:41;;;;;;;;;;;;;;;;;;5089559;28;19975;-73
2023/07/31 01:02:08;;;;;;;;;;;;;;;;;;5083971;28;19994;-72
2023/07/31 01:04:36;;;;;;;;;;;;;;;;;;5086449;28;19974;-72
2023/07/31 01:07:03;;;;;;;;;;;;;;;;;;5088237;28;19924;-72
2023/07/31 01:09:30;;;;;;;;;;;;;;;;;;5072051;28;20264;-72
2023/07/31 01:11:57;;;;;;;;;;;;;;;;;;5074444;28;19932;-72
2023/07/31 01:14:24;;;;;;;;;;;;;;;;;;5089565;28;19986;-72
2023/07/31 01:16:51;;;;;;;;;;;;;;;;;;5079768;28;19924;-72
2023/07/31 01:19:18;;;;;;;;;;;;;;;;;;5080469;28;19928;-73
2023/07/31 01:21:45;;;;;;;;;;;;;;;;;;5083794;28;19990;-72
2023/07/31 01:24:12;;;;;;;;;;;;;;;;;;5084348;28;19986;-71
2023/07/31 01:26:39;;;;;;;;;;;;;;;;;;5078671;28;19924;-72
2023/07/31 01:29:06;;;;;;;;;;;;;;;;;;5076578;28;20295;-72
2023/07/31 01:31:33;;;;;;;;;;;;;;;;;;5080408;28;19978;-73
2023/07/31 01:34:00;;;;;;;;;;;;;;;;;;5092007;28;19930;-72
2023/07/31 01:36:27;;;;;;;;;;;;;;;;;;5091375;28;19924;-73
2023/07/31 01:38:54;;;;;;;;;;;;;;;;;;5087213;28;20023;-73
2023/07/31 01:41:21;;;;;;;;;;;;;;;;;;5090911;28;19960;-72
2023/07/31 01:43:48;;;;;;;;;;;;;;;;;;5091937;28;20015;-72
2023/07/31 01:46:15;;;;;;;;;;;;;;;;;;5090866;28;20401;-72
2023/07/31 01:48:42;;;;;;;;;;;;;;;;;;5090775;28;19924;-71
2023/07/31 01:51:08;;;;;;;;;;;;;;;;;;5091652;28;19924;-73
2023/07/31 01:53:35;;;;;;;;;;;;;;;;;;5089468;28;20035;-72
2023/07/31 01:56:02;;;;;;;;;;;;;;;;;;5093870;28;20007;-72
2023/07/31 01:58:29;;;;;;;;;;;;;;;;;;5090377;28;19924;-72
2023/07/31 02:00:56;;;;;;;;;;;;;;;;;;5089369;28;19928;-73
2023/07/31 02:03:23;;;;;;;;;;;;;;;;;;5076842;28;19924;-73
2023/07/31 02:05:50;;;;;;;;;;;;;;;;;;5094402;28;19924;-73
2023/07/31 02:08:17;;;;;;;;;;;;;;;;;;5093239;28;20023;-74
2023/07/31 02:10:44;;;;;;;;;;;;;;;;;;5089885;28;20003;-75
2023/07/31 02:13:11;;;;;;;;;;;;;;;;;;5091117;28;19924;-73
2023/07/31 02:15:38;;;;;;;;;;;;;;;;;;5079043;28;19932;-73
2023/07/31 02:18:05;;;;;;;;;;;;;;;;;;5093510;28;20298;-73
2023/07/31 02:20:32;;;;;;;;;;;;;;;;;;5093002;28;20361;-73
2023/07/31 02:22:59;;;;;;;;;;;;;;;;;;5094033;28;20024;-72
2023/07/31 02:25:26;;;;;;;;;;;;;;;;;;5095081;28;20017;-73
2023/07/31 02:27:53;;;;;;;;;;;;;;;;;;5095859;28;20010;-72
2023/07/31 02:30:20;;;;;;;;;;;;;;;;;;5089818;28;20054;-73
2023/07/31 02:32:47;;;;;;;;;;;;;;;;;;5082939;28;19924;-73
2023/07/31 02:35:15;;;;;;;;;;;;;;;;;;5092381;28;19924;-73
2023/07/31 02:37:42;;;;;;;;;;;;;;;;;;5090019;28;19924;-72
2023/07/31 02:40:09;;;;;;;;;;;;;;;;;;5092083;28;19930;-72
2023/07/31 02:42:36;;;;;;;;;;;;;;;;;;5083002;28;19982;-73
2023/07/31 02:45:03;;;;;;;;;;;;;;;;;;5092577;28;19930;-73
2023/07/31 02:47:30;;;;;;;;;;;;;;;;;;5092018;28;19924;-73
2023/07/31 02:49:57;;;;;;;;;;;;;;;;;;5085991;28;20014;-73
2023/07/31 02:52:24;;;;;;;;;;;;;;;;;;5090684;28;19931;-73
2023/07/31 02:54:51;;;;;;;;;;;;;;;;;;5093707;28;19930;-74
2023/07/31 02:57:18;;;;;;;;;;;;;;;;;;5091666;28;20019;-73
2023/07/31 02:59:45;;;;;;;;;;;;;;;;;;5091419;28;20026;-73
2023/07/31 03:02:12;;;;;;;;;;;;;;;;;;5087764;28;20015;-74
2023/07/31 03:04:39;;;;;;;;;;;;;;;;;;5076988;28;19925;-74
2023/07/31 03:07:06;;;;;;;;;;;;;;;;;;5086602;28;19928;-73
2023/07/31 03:09:33;;;;;;;;;;;;;;;;;;5082372;28;19985;-73
2023/07/31 03:12:00;;;;;;;;;;;;;;;;;;5090742;28;19968;-73
2023/07/31 03:14:27;;;;;;;;;;;;;;;;;;5092590;28;19971;-74
2023/07/31 03:16:54;;;;;;;;;;;;;;;;;;5086485;28;19983;-74
2023/07/31 03:19:21;;;;;;;;;;;;;;;;;;5094074;28;20040;-74
2023/07/31 03:21:48;;;;;;;;;;;;;;;;;;5086719;28;19964;-73
2023/07/31 03:24:15;;;;;;;;;;;;;;;;;;5090329;28;19952;-72
2023/07/31 03:26:42;;;;;;;;;;;;;;;;;;5077351;28;19990;-72
2023/07/31 03:29:09;;;;;;;;;;;;;;;;;;5084923;28;19924;-73
2023/07/31 03:31:36;;;;;;;;;;;;;;;;;;5090909;28;19971;-72
2023/07/31 03:34:03;;;;;;;;;;;;;;;;;;5091435;28;20035;-73
2023/07/31 03:36:30;;;;;;;;;;;;;;;;;;5095994;28;20094;-73
2023/07/31 03:38:57;;;;;;;;;;;;;;;;;;5091696;28;20286;-73
2023/07/31 03:41:24;;;;;;;;;;;;;;;;;;5090426;28;19924;-73
2023/07/31 03:43:51;;;;;;;;;;;;;;;;;;5087782;28;19978;-73
2023/07/31 03:46:18;;;;;;;;;;;;;;;;;;5090823;28;19992;-73
2023/07/31 03:48:45;;;;;;;;;;;;;;;;;;5085619;28;19924;-73
2023/07/31 03:51:12;;;;;;;;;;;;;;;;;;5092690;28;19928;-73
2023/07/31 03:53:39;;;;;;;;;;;;;;;;;;5102087;28;19969;-73
2023/07/31 03:56:06;;;;;;;;;;;;;;;;;;5079665;28;19924;-73
2023/07/31 03:58:34;;;;;;;;;;;;;;;;;;5089011;28;19924;-74
2023/07/31 04:01:01;;;;;;;;;;;;;;;;;;5091685;28;19970;-72
2023/07/31 04:03:28;;;;;;;;;;;;;;;;;;5089090;28;19971;-73
2023/07/31 04:05:56;;;;;;;;;;;;;;;;;;5092863;28;20368;-73
2023/07/31 04:08:23;;;;;;;;;;;;;;;;;;5091349;28;19932;-72
2023/07/31 04:10:50;;;;;;;;;;;;;;;;;;5092593;28;19924;-73
2023/07/31 04:13:17;;;;;;;;;;;;;;;;;;5084531;28;19971;-73
2023/07/31 04:15:44;;;;;;;;;;;;;;;;;;5091653;28;20386;-73
2023/07/31 04:18:11;;;;;;;;;;;;;;;;;;5091629;28;19924;-73
2023/07/31 04:20:38;;;;;;;;;;;;;;;;;;5092751;28;19977;-73
2023/07/31 04:23:05;;;;;;;;;;;;;;;;;;5090285;28;20332;-73
2023/07/31 04:25:34;;;;;;;;;;;;;;;;;;5091022;28;19924;-72
2023/07/31 04:28:01;;;;;;;;;;;;;;;;;;5109765;28;19930;-73
2023/07/31 04:30:28;;;;;;;;;;;;;;;;;;5083854;28;19981;-73
2023/07/31 04:32:55;;;;;;;;;;;;;;;;;;5078945;28;19925;-72
2023/07/31 04:35:22;;;;;;;;;;;;;;;;;;5091455;28;19924;-73
2023/07/31 04:37:49;;;;;;;;;;;;;;;;;;5086459;28;19993;-72
2023/07/31 04:40:16;;;;;;;;;;;;;;;;;;5090831;28;19924;-73
2023/07/31 04:42:43;;;;;;;;;;;;;;;;;;5087839;28;19936;-73
2023/07/31 04:45:10;;;;;;;;;;;;;;;;;;5090136;28;20444;-73
2023/07/31 04:47:37;;;;;;;;;;;;;;;;;;5090502;28;19928;-73
2023/07/31 04:50:04;;;;;;;;;;;;;;;;;;5089606;28;19928;-73
2023/07/31 04:52:31;;;;;;;;;;;;;;;;;;5085884;28;19928;-73
2023/07/31 04:54:58;;;;;;;;;;;;;;;;;;5088304;28;20040;-73
2023/07/31 04:57:25;;;;;;;;;;;;;;;;;;5089437;28;19977;-73
2023/07/31 04:59:52;;;;;;;;;;;;;;;;;;5083068;28;19924;-73
2023/07/31 05:02:19;;;;;;;;;;;;;;;;;;5089990;28;19927;-72
2023/07/31 05:04:46;;;;;;;;;;;;;;;;;;5089760;28;19978;-72
2023/07/31 05:07:13;;;;;;;;;;;;;;;;;;5091614;28;19924;-73
2023/07/31 05:09:40;;;;;;;;;;;;;;;;;;5088810;28;19938;-72
2023/07/31 05:12:07;;;;;;;;;;;;;;;;;;5085109;28;20444;-72
2023/07/31 05:14:34;;;;;;;;;;;;;;;;;;5092072;28;19969;-75
2023/07/31 05:17:01;;;;;;;;;;;;;;;;;;5089468;28;19925;-73
2023/07/31 05:19:28;;;;;;;;;;;;;;;;;;5089165;28;19973;-74
2023/07/31 05:21:55;;;;;;;;;;;;;;;;;;5090475;28;19924;-72
2023/07/31 05:24:22;;;;;;;;;;;;;;;;;;5073394;28;19924;-72
2023/07/31 05:26:49;;;;;;;;;;;;;;;;;;5091085;28;19956;-72
2023/07/31 05:29:16;;;;;;;;;;;;;;;;;;5095878;28;19977;-72
2023/07/31 05:31:43;;;;;;;;;;;;;;;;;;5088895;28;19928;-72
2023/07/31 05:34:10;;;;;;;;;;;;;;;;;;5090345;28;20455;-73
2023/07/31 05:36:37;;;;;;;;;;;;;;;;;;5091912;28;19924;-72
2023/07/31 05:39:08;;;;;;;;;;;;;;;;;;5090571;28;19943;-73
2023/07/31 05:41:35;;;;;;;;;;;;;;;;;;5093062;28;22074;-72
2023/07/31 05:44:02;;;;;;;;;;;;;;;;;;5095939;28;19964;-73
2023/07/31 05:46:30;;;;;;;;;;;;;;;;;;5094266;28;19969;-73
2023/07/31 05:48:59;;;;;;;;;;;;;;;;;;5093340;28;20031;-73
2023/07/31 05:51:26;;;;;;;;;;;;;;;;;;5092612;28;20446;-73
2023/07/31 05:53:53;;;;;;;;;;;;;;;;;;5089784;28;19924;-73
2023/07/31 05:56:20;;;;;;;;;;;;;;;;;;5092757;28;19953;-73
2023/07/31 05:58:48;;;;;;;;;;;;;;;;;;5084173;28;19927;-72
2023/07/31 06:01:15;;;;;;;;;;;;;;;;;;5090052;28;19977;-74
2023/07/31 06:03:42;;;;;;;;;;;;;;;;;;5084635;28;19923;-73
2023/07/31 06:06:09;;;;;;;;;;;;;;;;;;5092169;28;19924;-72
2023/07/31 06:08:36;;;;;;;;;;;;;;;;;;5099567;28;19969;-72
2023/07/31 06:11:03;;;;;;;;;;;;;;;;;;5095351;28;19924;-73
2023/07/31 06:13:30;;;;;;;;;;;;;;;;;;5084408;28;20027;-72
2023/07/31 06:15:59;;;;;;;;;;;;;;;;;;5094433;28;19949;-72
2023/07/31 06:18:26;;;;;;;;;;;;;;;;;;5093603;28;19931;-72
2023/07/31 06:20:53;;;;;;;;;;;;;;;;;;5095120;28;19975;-72
2023/07/31 06:23:20;;;;;;;;;;;;;;;;;;5091317;28;19924;-73
2023/07/31 06:25:47;;;;;;;;;;;;;;;;;;5095183;28;19924;-72
2023/07/31 06:28:14;;;;;;;;;;;;;;;;;;5093190;28;19979;-72
2023/07/31 06:30:41;;;;;;;;;;;;;;;;;;5094616;28;19974;-71
2023/07/31 06:33:09;;;;;;;;;;;;;;;;;;5089295;28;19924;-72
2023/07/31 06:35:36;;;;;;;;;;;;;;;;;;5093494;28;19931;-72
2023/07/31 06:38:03;;;;;;;;;;;;;;;;;;5090990;28;20391;-71
2023/07/31 06:40:30;;;;;;;;;;;;;;;;;;5091679;28;19975;-71
2023/07/31 06:42:57;;;;;;;;;;;;;;;;;;5093871;28;19924;-73
2023/07/31 06:45:24;;;;;;;;;;;;;;;;;;5092304;28;19963;-72
2023/07/31 06:47:51;;;;;;;;;;;;;;;;;;5091836;28;19966;-71
2023/07/31 06:50:18;;;;;;;;;;;;;;;;;;5092244;28;19935;-71
2023/07/31 06:52:45;;;;;;;;;;;;;;;;;;5090371;28;19954;-72
2023/07/31 06:55:13;;;;;;;;;;;;;;;;;;5085313;28;19931;-72
2023/07/31 06:57:40;;;;;;;;;;;;;;;;;;5090453;28;19993;-73
2023/07/31 07:00:07;;;;;;;;;;;;;;;;;;5084565;28;19924;-74
2023/07/31 07:02:33;;;;;;;;;;;;;;;;;;5091621;28;20360;-73
2023/07/31 07:05:00;;;;;;;;;;;;;;;;;;5094370;28;19924;-73
2023/07/31 07:07:27;;;;;;;;;;;;;;;;;;5084634;28;20548;-74
2023/07/31 07:09:54;;;;;;;;;;;;;;;;;;5094278;28;19924;-73
2023/07/31 07:12:21;;;;;;;;;;;;;;;;;;5089745;28;19989;-70
2023/07/31 07:14:48;;;;;;;;;;;;;;;;;;5075432;28;20391;-71
2023/07/31 07:17:15;;;;;;;;;;;;;;;;;;5089535;28;20001;-71
2023/07/31 07:19:42;;;;;;;;;;;;;;;;;;5085932;28;19924;-71
2023/07/31 07:22:09;;;;;;;;;;;;;;;;;;5088881;28;19985;-71
2023/07/31 07:24:36;;;;;;;;;;;;;;;;;;5093169;28;19928;-72
2023/07/31 07:27:03;;;;;;;;;;;;;;;;;;5093904;28;19931;-71
2023/07/31 07:29:30;;;;;;;;;;;;;;;;;;5092075;28;20303;-71
2023/07/31 07:31:57;;;;;;;;;;;;;;;;;;5090756;28;19924;-71
2023/07/31 07:34:24;;;;;;;;;;;;;;;;;;5092559;28;20021;-71
2023/07/31 07:36:51;;;;;;;;;;;;;;;;;;5078375;28;19924;-72
2023/07/31 07:39:18;;;;;;;;;;;;;;;;;;5088007;28;19998;-72
2023/07/31 07:41:45;;;;;;;;;;;;;;;;;;5086390;28;19928;-72
2023/07/31 07:44:12;;;;;;;;;;;;;;;;;;5089989;28;20399;-72
2023/07/31 07:46:39;;;;;;;;;;;;;;;;;;5084192;28;19978;-72
2023/07/31 07:49:06;;;;;;;;;;;;;;;;;;5086372;28;19985;-72
2023/07/31 07:51:33;;;;;;;;;;;;;;;;;;5080123;28;20374;-72
2023/07/31 07:54:00;;;;;;;;;;;;;;;;;;5085590;28;19932;-72
2023/07/31 07:56:27;;;;;;;;;;;;;;;;;;5080336;28;20283;-71
2023/07/31 07:58:54;;;;;;;;;;;;;;;;;;5083963;28;19978;-76
2023/07/31 08:01:21;;;;;;;;;;;;;;;;;;5088512;28;19963;-74
2023/07/31 08:03:48;;;;;;;;;;;;;;;;;;5087947;28;19971;-71
2023/07/31 08:06:15;;;;;;;;;;;;;;;;;;5090174;28;19924;-71
2023/07/31 08:08:42;;;;;;;;;;;;;;;;;;5091103;28;19985;-70
2023/07/31 08:11:09;;;;;;;;;;;;;;;;;;5090587;28;19924;-70
2023/07/31 08:13:37;;;;;;;;;;;;;;;;;;5089240;28;20015;-70
2023/07/31 08:16:07;;;;;;;;;;;;;;;;;;5086999;28;19932;-73
2023/07/31 08:18:34;;;;;;;;;;;;;;;;;;5079037;28;19931;-70
2023/07/31 08:21:01;;;;;;;;;;;;;;;;;;5084141;28;19928;-70
2023/07/31 08:23:28;;;;;;;;;;;;;;;;;;5080466;28;19932;-70
2023/07/31 08:25:55;;;;;;;;;;;;;;;;;;5087778;28;19986;-70
2023/07/31 08:28:22;;;;;;;;;;;;;;;;;;5083790;28;20375;-69
2023/07/31 08:30:50;;;;;;;;;;;;;;;;;;5078436;28;19967;-69
2023/07/31 08:33:17;;;;;;;;;;;;;;;;;;5089159;28;19986;-69
2023/07/31 08:35:44;;;;;;;;;;;;;;;;;;5085995;28;20029;-69
2023/07/31 08:38:11;;;;;;;;;;;;;;;;;;5088464;28;19924;-69
2023/07/31 08:40:38;;;;;;;;;;;;;;;;;;5088240;28;19951;-69
2023/07/31 08:43:05;;;;;;;;;;;;;;;;;;5094000;28;19967;-69
2023/07/31 08:45:32;;;;;;;;;;;;;;;;;;5082648;28;19924;-69
2023/07/31 08:47:59;;;;;;;;;;;;;;;;;;5089662;28;19989;-69
2023/07/31 08:50:27;;;;;;;;;;;;;;;;;;5089574;28;19925;-69
2023/07/31 08:52:54;;;;;;;;;;;;;;;;;;5091317;28;19924;-69
2023/07/31 08:55:23;;;;;;;;;;;;;;;;;;5089056;28;20667;-70
2023/07/31 08:57:50;;;;;;;;;;;;;;;;;;5090068;28;20357;-69
2023/07/31 09:00:17;;;;;;;;;;;;;;;;;;5087206;28;19932;-70
2023/07/31 09:02:44;;;;;;;;;;;;;;;;;;5082832;28;19924;-70
2023/07/31 09:05:11;;;;;;;;;;;;;;;;;;5086776;28;20552;-70
2023/07/31 09:07:38;;;;;;;;;;;;;;;;;;5086160;28;20397;-70
2023/07/31 09:10:05;;;;;;;;;;;;;;;;;;5084319;28;20004;-70
2023/07/31 09:12:32;;;;;;;;;;;;;;;;;;5086860;28;19966;-70
2023/07/31 09:14:59;;;;;;;;;;;;;;;;;;5091410;28;19924;-70
2023/07/31 09:17:26;;;;;;;;;;;;;;;;;;5091593;28;20389;-70
2023/07/31 09:19:54;;;;;;;;;;;;;;;;;;5088247;28;19977;-70
2023/07/31 09:22:21;;;;;;;;;;;;;;;;;;5085396;28;19924;-72
2023/07/31 09:24:48;;;;;;;;;;;;;;;;;;5084066;28;20440;-70
2023/07/31 09:27:15;;;;;;;;;;;;;;;;;;5078929;28;20379;-70
2023/07/31 09:29:42;;;;;;;;;;;;;;;;;;5084772;28;19928;-70
2023/07/31 09:32:09;;;;;;;;;;;;;;;;;;5085953;28;20378;-69
2023/07/31 09:34:41;;;;;;;;;;;;;;;;;;5085160;28;19930;-71
2023/07/31 09:37:11;;;;;;;;;;;;;;;;;;5077138;28;20015;-70
2023/07/31 09:39:39;;;;;;;;;;;;;;;;;;5088655;28;20142;-70
2023/07/31 09:42:06;;;;;;;;;;;;;;;;;;5088962;28;20020;-68
2023/07/31 09:44:33;;;;;;;;;;;;;;;;;;5087797;28;19932;-69
2023/07/31 09:47:01;;;;;;;;;;;;;;;;;;5078135;28;19932;-69
2023/07/31 09:49:29;;;;;;;;;;;;;;;;;;5079619;28;19924;-70
2023/07/31 09:51:58;;;;;;;;;;;;;;;;;;5081050;28;19929;-72
2023/07/31 09:54:28;;;;;;;;;;;;;;;;;;5080209;28;19936;-72
2023/07/31 09:56:55;;;;;;;;;;;;;;;;;;5074490;28;19924;-70
2023/07/31 09:59:22;;;;;;;;;;;;;;;;;;5072120;28;19943;-70
2023/07/31 10:01:51;;;;;;;;;;;;;;;;;;5073348;28;19924;-71
2023/07/31 10:04:19;;;;;;;;;;;;;;;;;;5085929;28;19947;-71
2023/07/31 10:06:46;;;;;;;;;;;;;;;;;;5082553;28;20306;-70
2023/07/31 10:09:13;;;;;;;;;;;;;;;;;;5080924;28;19977;-71
2023/07/31 10:11:40;;;;;;;;;;;;;;;;;;5085794;28;20444;-71
2023/07/31 10:14:07;;;;;;;;;;;;;;;;;;5085093;28;20324;-71
2023/07/31 10:16:34;;;;;;;;;;;;;;;;;;5083198;28;19932;-71
2023/07/31 10:19:01;;;;;;;;;;;;;;;;;;5085020;28;19934;-71
2023/07/31 10:21:28;;;;;;;;;;;;;;;;;;5087093;28;20333;-70
2023/07/31 10:23:55;;;;;;;;;;;;;;;;;;5087899;28;20046;-70
2023/07/31 10:26:22;;;;;;;;;;;;;;;;;;5084902;28;20031;-71
2023/07/31 10:28:49;;;;;;;;;;;;;;;;;;5085640;28;19932;-71
2023/07/31 10:31:16;;;;;;;;;;;;;;;;;;5085472;28;19932;-71
2023/07/31 10:33:43;;;;;;;;;;;;;;;;;;5089659;28;19928;-71
2023/07/31 10:36:10;;;;;;;;;;;;;;;;;;5085428;28;20336;-70
2023/07/31 10:38:37;;;;;;;;;;;;;;;;;;5091191;28;19968;-70
2023/07/31 10:41:04;;;;;;;;;;;;;;;;;;5095958;28;19928;-71
2023/07/31 10:43:31;;;;;;;;;;;;;;;;;;5089537;28;19977;-71
2023/07/31 10:45:58;;;;;;;;;;;;;;;;;;5088537;28;19928;-70
2023/07/31 10:48:25;;;;;;;;;;;;;;;;;;5088914;28;19967;-70
2023/07/31 10:50:52;;;;;;;;;;;;;;;;;;5089791;28;19947;-71
2023/07/31 10:53:20;;;;;;;;;;;;;;;;;;5087353;28;20015;-71
2023/07/31 10:55:47;;;;;;;;;;;;;;;;;;5090865;28;20379;-71
2023/07/31 10:58:14;;;;;;;;;;;;;;;;;;5091713;28;19932;-71
2023/07/31 11:00:41;;;;;;;;;;;;;;;;;;5091480;28;19924;-72
2023/07/31 11:03:10;;;;;;;;;;;;;;;;;;5090376;28;20380;-71
2023/07/31 11:05:36;;;;;;;;;;;;;;;;;;5088674;28;20374;-72
2023/07/31 11:08:03;;;;;;;;;;;;;;;;;;5088235;28;19924;-70
2023/07/31 11:10:30;;;;;;;;;;;;;;;;;;5079714;28;20338;-70
2023/07/31 11:12:57;;;;;;;;;;;;;;;;;;5092112;28;20004;-71
2023/07/31 11:15:24;;;;;;;;;;;;;;;;;;5094734;28;20040;-71
2023/07/31 11:17:51;;;;;;;;;;;;;;;;;;5085306;28;19924;-70
2023/07/31 11:20:18;;;;;;;;;;;;;;;;;;5090157;28;19924;-71
2023/07/31 11:22:45;;;;;;;;;;;;;;;;;;5091060;28;20391;-70
2023/07/31 11:25:12;;;;;;;;;;;;;;;;;;5089294;28;19928;-71
2023/07/31 11:27:39;;;;;;;;;;;;;;;;;;5081090;28;19924;-71
2023/07/31 11:30:07;;;;;;;;;;;;;;;;;;5084487;28;20410;-71
2023/07/31 11:32:34;;;;;;;;;;;;;;;;;;5090605;28;19924;-71
2023/07/31 11:35:01;;;;;;;;;;;;;;;;;;5090946;28;19978;-70
2023/07/31 11:37:28;;;;;;;;;;;;;;;;;;5083391;28;19967;-70
2023/07/31 11:39:55;;;;;;;;;;;;;;;;;;5088815;28;20393;-70
2023/07/31 11:42:22;;;;;;;;;;;;;;;;;;5092887;28;19924;-72
2023/07/31 11:44:49;;;;;;;;;;;;;;;;;;5091449;28;19932;-71
2023/07/31 11:47:16;;;;;;;;;;;;;;;;;;5088250;28;19924;-70
2023/07/31 11:49:43;;;;;;;;;;;;;;;;;;5090529;28;20349;-71
2023/07/31 11:52:10;;;;;;;;;;;;;;;;;;5087112;28;19961;-71
2023/07/31 11:54:37;;;;;;;;;;;;;;;;;;5082626;28;20545;-71
2023/07/31 11:57:04;;;;;;;;;;;;;;;;;;5087734;28;19947;-71
2023/07/31 11:59:31;;;;;;;;;;;;;;;;;;5080137;28;19931;-71
2023/07/31 12:01:58;;;;;;;;;;;;;;;;;;5090105;28;19924;-71
2023/07/31 12:04:25;;;;;;;;;;;;;;;;;;5091609;28;19924;-70
2023/07/31 12:06:52;;;;;;;;;;;;;;;;;;5087914;28;19997;-71
2023/07/31 12:09:20;;;;;;;;;;;;;;;;;;5091086;28;20452;-71
2023/07/31 12:11:47;;;;;;;;;;;;;;;;;;5091863;28;19928;-70
2023/07/31 12:14:14;;;;;;;;;;;;;;;;;;5091160;28;19928;-71
2023/07/31 12:16:41;;;;;;;;;;;;;;;;;;5089422;28;19970;-70
2023/07/31 12:19:08;;;;;;;;;;;;;;;;;;5088889;28;19966;-66
2023/07/31 12:21:35;;;;;;;;;;;;;;;;;;5092266;28;19932;-66
2023/07/31 12:24:01;;;;;;;;;;;;;;;;;;5092022;28;20394;-66
2023/07/31 12:26:29;;;;;;;;;;;;;;;;;;5082586;28;19924;-66
2023/07/31 12:28:56;;;;;;;;;;;;;;;;;;5087376;28;20351;-66
2023/07/31 12:31:22;;;;;;;;;;;;;;;;;;5084324;28;19931;-66
2023/07/31 12:33:50;;;;;;;;;;;;;;;;;;5090919;28;20440;-66
2023/07/31 12:36:17;;;;;;;;;;;;;;;;;;5084586;28;20046;-66
2023/07/31 12:38:44;;;;;;;;;;;;;;;;;;5088574;28;20012;-66
2023/07/31 12:41:11;;;;;;;;;;;;;;;;;;5083377;28;19926;-67
2023/07/31 12:43:38;;;;;;;;;;;;;;;;;;5083804;28;19928;-67
2023/07/31 12:46:05;;;;;;;;;;;;;;;;;;5089014;28;19954;-67
2023/07/31 12:48:32;;;;;;;;;;;;;;;;;;5089818;28;20306;-67
2023/07/31 12:50:59;;;;;;;;;;;;;;;;;;5089424;28;19928;-67
2023/07/31 12:53:26;;;;;;;;;;;;;;;;;;5088615;28;20478;-67
2023/07/31 12:55:53;;;;;;;;;;;;;;;;;;5087643;28;19992;-66
2023/07/31 12:58:20;;;;;;;;;;;;;;;;;;5085583;28;19969;-67
2023/07/31 13:00:47;;;;;;;;;;;;;;;;;;5091823;28;19924;-67
2023/07/31 13:03:14;;;;;;;;;;;;;;;;;;5089599;28;19985;-67
2023/07/31 13:05:41;;;;;;;;;;;;;;;;;;5087365;28;20348;-67
2023/07/31 13:08:08;;;;;;;;;;;;;;;;;;5087946;28;19959;-68
2023/07/31 13:10:35;;;;;;;;;;;;;;;;;;5090026;28;20458;-67
2023/07/31 13:13:02;;;;;;;;;;;;;;;;;;5081544;28;19935;-67
2023/07/31 13:15:29;;;;;;;;;;;;;;;;;;5088470;28;20341;-68
2023/07/31 13:17:56;;;;;;;;;;;;;;;;;;5083756;28;20387;-68
2023/07/31 13:20:23;;;;;;;;;;;;;;;;;;5088561;28;19985;-65
2023/07/31 13:22:50;;;;;;;;;;;;;;;;;;5075454;28;19925;-67
2023/07/31 13:25:17;;;;;;;;;;;;;;;;;;5087718;28;19985;-68
2023/07/31 13:27:44;;;;;;;;;;;;;;;;;;5089125;28;19989;-68
2023/07/31 13:30:11;;;;;;;;;;;;;;;;;;5088070;28;19924;-68
2023/07/31 13:32:38;;;;;;;;;;;;;;;;;;5084235;28;19984;-68
2023/07/31 13:35:05;;;;;;;;;;;;;;;;;;5083788;28;19950;-67
2023/07/31 13:37:32;;;;;;;;;;;;;;;;;;5086727;28;20387;-68
2023/07/31 13:40:00;;;;;;;;;;;;;;;;;;5087261;28;19928;-68
2023/07/31 13:42:28;;;;;;;;;;;;;;;;;;5089575;28;19973;-67
2023/07/31 13:44:56;;;;;;;;;;;;;;;;;;5085197;28;20546;-68
2023/07/31 13:47:23;;;;;;;;;;;;;;;;;;5089245;28;20512;-66
2023/07/31 13:49:50;;;;;;;;;;;;;;;;;;5093506;28;19924;-67
2023/07/31 13:52:17;;;;;;;;;;;;;;;;;;5091173;28;20019;-67
2023/07/31 13:54:44;;;;;;;;;;;;;;;;;;5090735;28;19947;-67
2023/07/31 13:57:12;;;;;;;;;;;;;;;;;;5091897;28;19928;-68
2023/07/31 13:59:39;;;;;;;;;;;;;;;;;;5090696;28;19928;-67
2023/07/31 14:02:06;;;;;;;;;;;;;;;;;;5085467;28;19931;-67
2023/07/31 14:04:33;;;;;;;;;;;;;;;;;;5097166;28;20427;-67
2023/07/31 14:07:00;;;;;;;;;;;;;;;;;;5093354;28;19999;-66
2023/07/31 14:09:28;;;;;;;;;;;;;;;;;;5087278;28;19932;-68
2023/07/31 14:11:55;;;;;;;;;;;;;;;;;;5090511;28;19924;-68
2023/07/31 14:14:22;;;;;;;;;;;;;;;;;;5093329;28;20036;-67
2023/07/31 14:16:48;;;;;;;;;;;;;;;;;;5093087;28;20276;-67
2023/07/31 14:19:15;;;;;;;;;;;;;;;;;;5090299;28;20049;-67
2023/07/31 14:21:42;;;;;;;;;;;;;;;;;;5091069;28;20383;-67
2023/07/31 14:24:09;;;;;;;;;;;;;;;;;;5092802;28;19938;-67
2023/07/31 14:26:36;;;;;;;;;;;;;;;;;;5091023;28;19924;-67
2023/07/31 14:29:03;;;;;;;;;;;;;;;;;;5089176;28;19928;-67
2023/07/31 14:31:31;;;;;;;;;;;;;;;;;;5091366;28;19930;-67
2023/07/31 14:33:58;;;;;;;;;;;;;;;;;;5091298;28;19924;-68
2023/07/31 14:36:25;;;;;;;;;;;;;;;;;;5088278;28;20448;-68
2023/07/31 14:38:55;;;;;;;;;;;;;;;;;;5096150;28;19931;-68
2023/07/31 14:41:22;;;;;;;;;;;;;;;;;;5082188;28;19932;-67
2023/07/31 14:43:49;;;;;;;;;;;;;;;;;;5092994;28;20367;-67
2023/07/31 14:46:16;;;;;;;;;;;;;;;;;;5093244;28;19981;-67
2023/07/31 14:48:43;;;;;;;;;;;;;;;;;;5094267;28;19924;-67
2023/07/31 14:51:10;;;;;;;;;;;;;;;;;;5090230;28;19941;-66
2023/07/31 14:53:37;;;;;;;;;;;;;;;;;;5092545;28;19931;-67
2023/07/31 14:56:04;;;;;;;;;;;;;;;;;;5090909;28;20295;-67
2023/07/31 14:58:31;;;;;;;;;;;;;;;;;;5089942;28;20402;-67
2023/07/31 15:00:58;;;;;;;;;;;;;;;;;;5091460;28;20383;-67
2023/07/31 15:03:26;;;;;;;;;;;;;;;;;;5089891;28;19975;-67
2023/07/31 15:05:53;;;;;;;;;;;;;;;;;;5091697;28;19928;-66
2023/07/31 15:08:20;;;;;;;;;;;;;;;;;;5092487;28;19936;-66
2023/07/31 15:10:55;;;;;;;;;;;;;;;;;;5088985;28;19967;-67
2023/07/31 15:13:22;;;;;;;;;;;;;;;;;;5091247;28;20018;-68
2023/07/31 15:15:49;;;;;;;;;;;;;;;;;;5091690;28;20473;-68
2023/07/31 15:18:16;;;;;;;;;;;;;;;;;;5092368;28;19950;-67
2023/07/31 15:20:43;;;;;;;;;;;;;;;;;;5089890;28;19936;-68
2023/07/31 15:23:10;;;;;;;;;;;;;;;;;;5092333;28;20705;-67
2023/07/31 15:25:37;;;;;;;;;;;;;;;;;;5086766;28;19955;-68
2023/07/31 15:28:04;;;;;;;;;;;;;;;;;;5090859;28;20034;-68
2023/07/31 15:30:31;;;;;;;;;;;;;;;;;;5096562;28;19973;-68
2023/07/31 15:32:59;;;;;;;;;;;;;;;;;;5085793;28;19978;-67
2023/07/31 15:35:26;;;;;;;;;;;;;;;;;;5083926;28;19931;-68
2023/07/31 15:37:53;;;;;;;;;;;;;;;;;;5087348;28;19978;-67
2023/07/31 15:40:20;;;;;;;;;;;;;;;;;;5091769;28;19965;-67
2023/07/31 15:42:47;;;;;;;;;;;;;;;;;;5085351;28;19971;-69
2023/07/31 15:45:14;;;;;;;;;;;;;;;;;;5086676;28;19924;-68
2023/07/31 15:47:41;;;;;;;;;;;;;;;;;;5090406;28;19982;-67
2023/07/31 15:50:08;;;;;;;;;;;;;;;;;;5089520;28;19924;-67
2023/07/31 15:52:35;;;;;;;;;;;;;;;;;;5085301;28;19924;-68
2023/07/31 15:55:02;;;;;;;;;;;;;;;;;;5085448;28;19956;-67
2023/07/31 15:57:29;;;;;;;;;;;;;;;;;;5088728;28;19935;-73
2023/07/31 15:59:56;;;;;;;;;;;;;;;;;;5091996;28;20311;-70
2023/07/31 16:02:23;;;;;;;;;;;;;;;;;;5089049;28;19924;-71
2023/07/31 16:04:50;;;;;;;;;;;;;;;;;;5089263;28;20280;-70
2023/07/31 16:07:17;;;;;;;;;;;;;;;;;;5090771;28;20375;-71
2023/07/31 16:09:44;;;;;;;;;;;;;;;;;;5088794;28;19931;-72
2023/07/31 16:12:11;;;;;;;;;;;;;;;;;;5079251;28;19932;-71
2023/07/31 16:14:38;;;;;;;;;;;;;;;;;;5078355;28;19936;-71
2023/07/31 16:17:05;;;;;;;;;;;;;;;;;;5089038;28;20374;-71
2023/07/31 16:19:32;;;;;;;;;;;;;;;;;;5090733;28;19924;-71
2023/07/31 16:22:00;;;;;;;;;;;;;;;;;;5092585;28;19972;-71
2023/07/31 16:24:27;;;;;;;;;;;;;;;;;;5084523;28;19940;-72
2023/07/31 16:26:54;;;;;;;;;;;;;;;;;;5092931;28;19982;-71
2023/07/31 16:29:21;;;;;;;;;;;;;;;;;;5084047;28;20014;-71
2023/07/31 16:31:48;;;;;;;;;;;;;;;;;;5086296;28;19947;-72
2023/07/31 16:34:15;;;;;;;;;;;;;;;;;;5088042;28;19924;-71
2023/07/31 16:36:42;;;;;;;;;;;;;;;;;;5087893;28;19943;-72
2023/07/31 16:39:09;;;;;;;;;;;;;;;;;;5091159;28;19947;-71
2023/07/31 16:41:36;;;;;;;;;;;;;;;;;;5089483;28;19924;-71
2023/07/31 16:44:03;;;;;;;;;;;;;;;;;;5087860;28;19977;-70